createdAt,value
2022-10-12T00:01:33.742Z,100.00
2022-10-12T00:04:00.170Z,100.00
2022-10-12T00:06:26.628Z,100.00
2022-10-12T00:08:54.814Z,100.00
2022-10-12T00:11:26.654Z,100.00
2022-10-12T00:13:53.741Z,100.00
2022-10-12T00:16:21.709Z,100.00
2022-10-12T00:18:52.443Z,100.00
2022-10-12T00:21:19.024Z,100.00
2022-10-12T00:23:45.997Z,100.00
2022-10-12T00:26:18.370Z,100.00
2022-10-12T00:28:45.076Z,100.00
2022-10-12T00:31:14.773Z,100.00
2022-10-12T00:33:41.984Z,100.00
2022-10-12T00:36:17.089Z,100.00
2022-10-12T00:38:43.607Z,100.00
2022-10-12T00:41:10.684Z,100.00
2022-10-12T00:43:41.640Z,100.00
2022-10-12T00:46:37.416Z,100.00
2022-10-12T00:49:12.829Z,100.00
2022-10-12T00:51:44.316Z,100.00
2022-10-12T00:54:14.504Z,100.00
2022-10-12T00:56:43.341Z,100.00
2022-10-12T00:59:12.788Z,100.00
2022-10-12T01:01:39.463Z,100.00
2022-10-12T01:04:06.391Z,100.00
2022-10-12T01:06:33.635Z,100.00
2022-10-12T01:09:00.282Z,100.00
2022-10-12T01:11:26.715Z,100.00
2022-10-12T01:13:53.132Z,100.00
2022-10-12T01:16:33.953Z,100.00
2022-10-12T01:19:45.195Z,100.00
2022-10-12T01:22:15.919Z,100.00
2022-10-12T01:24:52.901Z,100.00
2022-10-12T01:27:52.262Z,100.00
2022-10-12T01:30:23.124Z,100.00
2022-10-12T01:32:55.096Z,100.00
2022-10-12T01:35:25.631Z,100.00
2022-10-12T01:38:12.814Z,100.00
2022-10-12T01:40:44.357Z,100.00
2022-10-12T01:43:10.867Z,100.00
2022-10-12T01:45:37.367Z,100.00
2022-10-12T01:48:04.915Z,100.00
2022-10-12T01:50:38.020Z,100.00
2022-10-12T01:53:27.557Z,100.00
2022-10-12T01:56:21.119Z,100.00
2022-10-12T01:59:17.631Z,100.00
2022-10-12T02:01:52.854Z,100.00
2022-10-12T02:04:28.126Z,100.00
2022-10-12T02:07:01.192Z,100.00
2022-10-12T02:09:29.917Z,100.00
2022-10-12T02:11:58.481Z,100.00
2022-10-12T02:14:31.500Z,100.00
2022-10-12T02:17:04.652Z,100.00
2022-10-12T02:19:36.033Z,100.00
2022-10-12T02:22:05.192Z,100.00
2022-10-12T02:24:33.519Z,100.00
2022-10-12T02:27:00.899Z,100.00
2022-10-12T02:29:34.302Z,100.00
2022-10-12T02:32:24.155Z,100.00
2022-10-12T02:34:56.861Z,100.00
2022-10-12T02:37:25.964Z,100.00
2022-10-12T02:39:59.979Z,100.00
2022-10-12T02:42:41.855Z,100.00
2022-10-12T02:45:19.330Z,100.00
2022-10-12T02:47:47.161Z,100.00
2022-10-12T02:50:15.525Z,100.00
2022-10-12T02:52:42.248Z,100.00
2022-10-12T02:55:08.807Z,100.00
2022-10-12T02:57:35.396Z,100.00
2022-10-12T03:00:01.973Z,100.00
2022-10-12T03:02:28.711Z,100.00
2022-10-12T03:04:55.125Z,100.00
2022-10-12T03:07:21.526Z,100.00
2022-10-12T03:09:48.115Z,100.00
2022-10-12T03:12:14.622Z,100.00
2022-10-12T03:14:41.118Z,100.00
2022-10-12T03:17:07.901Z,100.00
2022-10-12T03:19:34.327Z,100.00
2022-10-12T03:22:00.890Z,100.00
2022-10-12T03:24:28.205Z,100.00
2022-10-12T03:26:54.633Z,100.00
2022-10-12T03:29:21.082Z,100.00
2022-10-12T03:31:47.532Z,100.00
2022-10-12T03:34:13.941Z,100.00
2022-10-12T03:36:40.400Z,100.00
2022-10-12T03:39:07.008Z,100.00
2022-10-12T03:41:33.444Z,100.00
2022-10-12T03:44:00.036Z,100.00
2022-10-12T03:46:26.569Z,100.00
2022-10-12T03:48:52.993Z,100.00
2022-10-12T03:51:19.447Z,100.00
2022-10-12T03:53:46.119Z,100.00
2022-10-12T03:56:12.887Z,100.00
2022-10-12T03:58:39.320Z,100.00
2022-10-12T04:01:05.851Z,100.00
2022-10-12T04:03:33.634Z,100.00
2022-10-12T04:06:00.041Z,100.00
2022-10-12T04:08:29.108Z,100.00
2022-10-12T04:10:56.072Z,100.00
2022-10-12T04:13:22.647Z,100.00
2022-10-12T04:15:49.316Z,100.00
2022-10-12T04:18:16.018Z,100.00
2022-10-12T04:20:42.452Z,100.00
2022-10-12T04:23:09.067Z,100.00
2022-10-12T04:25:35.542Z,100.00
2022-10-12T04:28:01.985Z,100.00
2022-10-12T04:30:29.107Z,100.00
2022-10-12T04:32:55.767Z,100.00
2022-10-12T04:35:22.208Z,100.00
2022-10-12T04:37:48.709Z,100.00
2022-10-12T04:40:15.121Z,100.00
2022-10-12T04:42:41.570Z,100.00
2022-10-12T04:45:08.572Z,100.00
2022-10-12T04:47:35.791Z,100.00
2022-10-12T04:50:03.007Z,100.00
2022-10-12T04:52:29.416Z,100.00
2022-10-12T04:54:55.837Z,100.00
2022-10-12T04:57:22.360Z,100.00
2022-10-12T04:59:48.934Z,100.00
2022-10-12T05:02:15.824Z,100.00
2022-10-12T05:04:42.421Z,100.00
2022-10-12T05:07:09.079Z,100.00
2022-10-12T05:09:35.566Z,100.00
2022-10-12T05:12:02.406Z,100.00
2022-10-12T05:14:35.014Z,100.00
2022-10-12T05:17:03.276Z,100.00
2022-10-12T05:19:29.863Z,100.00
2022-10-12T05:21:56.496Z,100.00
2022-10-12T05:24:23.093Z,100.00
2022-10-12T05:26:49.785Z,100.00
2022-10-12T05:29:16.869Z,100.00
2022-10-12T05:31:43.331Z,100.00
2022-10-12T05:34:10.024Z,100.00
2022-10-12T05:36:36.668Z,100.00
2022-10-12T05:39:05.907Z,100.00
2022-10-12T05:41:32.490Z,100.00
2022-10-12T05:43:58.907Z,100.00
2022-10-12T05:46:25.650Z,100.00
2022-10-12T05:48:52.135Z,100.00
2022-10-12T05:51:18.757Z,100.00
2022-10-12T05:53:45.257Z,100.00
2022-10-12T05:56:11.814Z,100.00
2022-10-12T05:58:38.362Z,100.00
2022-10-12T06:01:12.390Z,100.00
2022-10-12T06:03:38.958Z,100.00
2022-10-12T06:06:06.897Z,100.00
2022-10-12T06:08:34.092Z,100.00
2022-10-12T06:11:00.513Z,100.00
2022-10-12T06:13:26.936Z,100.00
2022-10-12T06:15:53.377Z,100.00
2022-10-12T06:18:20.279Z,100.00
2022-10-12T06:21:14.868Z,100.00
2022-10-12T06:23:40.541Z,100.00
2022-10-12T06:26:07.102Z,100.00
2022-10-12T06:28:33.686Z,100.00
2022-10-12T06:31:01.623Z,100.00
2022-10-12T06:33:28.748Z,100.00
2022-10-12T06:35:55.750Z,100.00
2022-10-12T06:38:22.597Z,100.00
2022-10-12T06:40:49.294Z,100.00
2022-10-12T06:43:15.917Z,100.00
2022-10-12T06:45:42.406Z,100.00
2022-10-12T06:48:09.297Z,100.00
2022-10-12T06:50:36.016Z,100.00
2022-10-12T06:53:04.695Z,100.00
2022-10-12T06:55:31.510Z,100.00
2022-10-12T06:57:57.967Z,100.00
2022-10-12T07:00:24.994Z,100.00
2022-10-12T07:02:52.206Z,100.00
2022-10-12T07:05:19.307Z,100.00
2022-10-12T07:07:45.781Z,100.00
2022-10-12T07:10:12.536Z,100.00
2022-10-12T07:12:39.412Z,100.00
2022-10-12T07:15:07.328Z,100.00
2022-10-12T07:17:33.911Z,100.00
2022-10-12T07:20:00.360Z,100.00
2022-10-12T07:22:27.239Z,100.00
2022-10-12T07:37:44.366Z,43.74
2022-10-12T07:40:10.943Z,34.19
2022-10-12T07:42:48.899Z,30.74
2022-10-12T07:45:30.252Z,28.61
2022-10-12T07:47:56.748Z,28.94
2022-10-12T07:50:23.410Z,26.85
2022-10-12T07:52:56.236Z,26.53
2022-10-12T07:55:22.746Z,25.99
2022-10-12T07:57:49.159Z,24.71
2022-10-12T08:00:22.181Z,25.00
2022-10-12T08:02:48.767Z,24.55
2022-10-12T08:05:15.246Z,25.91
2022-10-12T08:07:48.252Z,25.88
2022-10-12T08:10:14.754Z,26.05
2022-10-12T08:12:41.343Z,27.32
2022-10-12T08:15:15.256Z,25.07
2022-10-12T08:17:41.840Z,24.78
2022-10-12T08:20:08.630Z,23.81
2022-10-12T08:22:41.155Z,23.60
2022-10-12T08:25:07.960Z,24.02
2022-10-12T08:27:36.112Z,23.70
2022-10-12T08:30:09.166Z,26.37
2022-10-12T08:32:35.656Z,26.18
2022-10-12T08:35:02.213Z,24.83
2022-10-12T08:37:42.295Z,22.59
2022-10-12T08:40:14.314Z,21.65
2022-10-12T08:42:55.177Z,24.26
2022-10-12T08:45:36.374Z,26.50
2022-10-12T08:48:25.173Z,33.57
2022-10-12T08:51:03.886Z,37.43
2022-10-12T08:53:54.179Z,39.68
2022-10-12T08:56:20.865Z,41.98
2022-10-12T08:58:48.418Z,45.77
2022-10-12T09:01:30.224Z,46.29
2022-10-12T09:04:13.353Z,48.14
2022-10-12T09:06:53.198Z,50.17
2022-10-12T09:09:46.596Z,50.68
2022-10-12T09:12:30.289Z,51.12
2022-10-12T09:15:00.507Z,50.09
2022-10-12T09:17:37.304Z,49.07
2022-10-12T09:20:33.214Z,48.18
2022-10-12T09:23:35.371Z,49.25
2022-10-12T09:26:09.953Z,50.90
2022-10-12T09:28:51.352Z,50.27
2022-10-12T09:31:43.430Z,51.38
2022-10-12T09:34:19.333Z,52.84
2022-10-12T09:36:55.479Z,52.08
2022-10-12T09:39:35.545Z,53.97
2022-10-12T09:42:02.333Z,54.27
2022-10-12T09:44:35.871Z,55.01
2022-10-12T09:47:04.331Z,54.29
2022-10-12T09:49:41.124Z,53.87
2022-10-12T09:52:08.270Z,53.52
2022-10-12T09:54:35.557Z,53.94
2022-10-12T09:57:02.717Z,56.00
2022-10-12T09:59:42.621Z,56.12
2022-10-12T10:02:11.864Z,54.98
2022-10-12T10:04:39.470Z,55.66
2022-10-12T10:07:24.373Z,55.26
2022-10-12T10:10:10.197Z,54.87
2022-10-12T10:12:43.011Z,55.75
2022-10-12T10:15:25.018Z,55.56
2022-10-12T10:17:57.065Z,55.44
2022-10-12T10:20:28.260Z,56.16
2022-10-12T10:22:54.831Z,57.72
2022-10-12T10:25:22.832Z,56.17
2022-10-12T10:27:50.958Z,56.25
2022-10-12T10:30:29.596Z,55.83
2022-10-12T10:33:18.271Z,55.14
2022-10-12T10:36:22.418Z,56.28
2022-10-12T10:38:55.692Z,54.30
2022-10-12T10:41:26.361Z,53.75
2022-10-12T10:43:52.989Z,54.46
2022-10-12T10:46:27.246Z,55.42
2022-10-12T10:49:01.715Z,55.27
2022-10-12T10:51:51.368Z,54.48
2022-10-12T10:54:23.867Z,54.88
2022-10-12T10:56:52.567Z,55.93
2022-10-12T10:59:22.411Z,55.37
2022-10-12T11:01:55.573Z,54.70
2022-10-12T11:04:42.012Z,54.89
2022-10-12T11:07:21.019Z,55.09
2022-10-12T11:09:52.137Z,53.47
2022-10-12T11:12:31.155Z,55.03
2022-10-12T11:15:05.928Z,54.11
2022-10-12T11:17:35.402Z,54.24
2022-10-12T11:20:15.760Z,53.54
2022-10-12T11:23:23.837Z,53.08
2022-10-12T11:26:04.265Z,53.20
2022-10-12T11:28:32.685Z,50.43
2022-10-12T11:31:00.494Z,50.66
2022-10-12T11:33:42.534Z,48.84
2022-10-12T11:36:16.174Z,49.48
2022-10-12T11:38:47.510Z,49.44
2022-10-12T11:41:35.729Z,49.30
2022-10-12T11:44:16.061Z,49.22
2022-10-12T11:46:57.086Z,49.59
2022-10-12T11:49:29.234Z,49.37
2022-10-12T11:51:58.748Z,48.11
2022-10-12T11:54:32.724Z,49.96
2022-10-12T11:57:05.182Z,48.98
2022-10-12T11:59:48.545Z,48.29
2022-10-12T12:02:23.416Z,47.39
2022-10-12T12:04:51.145Z,48.46
2022-10-12T12:07:48.981Z,46.58
2022-10-12T12:10:38.037Z,47.50
2022-10-12T12:13:11.616Z,49.12
2022-10-12T12:15:43.143Z,49.84
2022-10-12T12:18:15.640Z,50.14
2022-10-12T12:20:42.623Z,50.27
2022-10-12T12:23:29.494Z,51.39
2022-10-12T12:26:16.870Z,50.68
2022-10-12T12:28:49.655Z,50.14
2022-10-12T12:31:22.423Z,49.18
2022-10-12T12:33:52.067Z,48.95
2022-10-12T12:36:33.159Z,48.67
2022-10-12T12:39:00.453Z,45.98
2022-10-12T12:42:00.601Z,44.88
2022-10-12T12:44:34.477Z,48.32
2022-10-12T12:47:01.136Z,47.90
2022-10-12T12:49:46.377Z,49.18
2022-10-12T12:52:28.495Z,49.45
2022-10-12T12:55:16.574Z,49.65
2022-10-12T12:57:54.657Z,50.44
2022-10-12T13:00:22.736Z,50.83
2022-10-12T13:03:34.180Z,50.93
2022-10-12T13:06:14.992Z,50.98
2022-10-12T13:09:15.424Z,49.82
2022-10-12T13:12:06.755Z,50.79
2022-10-12T13:15:01.087Z,49.33
2022-10-12T13:17:39.837Z,48.97
2022-10-12T13:20:20.980Z,47.62
2022-10-12T13:22:50.716Z,44.97
2022-10-12T13:25:59.558Z,44.80
2022-10-12T13:28:29.086Z,45.68
2022-10-12T13:31:02.909Z,45.43
2022-10-12T13:34:08.072Z,44.26
2022-10-12T13:36:36.914Z,43.68
2022-10-12T13:39:21.269Z,43.49
2022-10-12T13:41:50.690Z,46.10
2022-10-12T13:44:26.802Z,47.41
2022-10-12T13:46:56.689Z,48.20
2022-10-12T13:49:24.987Z,49.08
2022-10-12T13:51:54.395Z,50.53
2022-10-12T13:54:26.213Z,51.58
2022-10-12T13:57:00.692Z,52.00
2022-10-12T13:59:28.699Z,53.90
2022-10-12T14:02:01.902Z,53.92
2022-10-12T14:04:30.922Z,54.16
2022-10-12T14:07:04.352Z,55.26
2022-10-12T14:09:40.360Z,55.34
2022-10-12T14:12:07.527Z,55.61
2022-10-12T14:14:36.266Z,55.53
2022-10-12T14:17:03.289Z,56.19
2022-10-12T14:19:51.448Z,56.27
2022-10-12T14:22:32.495Z,57.00
2022-10-12T14:25:08.009Z,57.54
2022-10-12T14:27:36.237Z,58.73
2022-10-12T14:30:23.683Z,59.51
2022-10-12T14:32:53.967Z,59.08
2022-10-12T14:35:25.546Z,60.34
2022-10-12T14:37:55.099Z,60.95
2022-10-12T14:40:39.335Z,60.92
2022-10-12T14:43:13.325Z,60.42
2022-10-12T14:45:40.603Z,61.71
2022-10-12T14:48:18.495Z,62.17
2022-10-12T14:50:48.338Z,62.53
2022-10-12T14:53:15.746Z,62.25
2022-10-12T14:55:42.939Z,62.65
2022-10-12T14:58:15.301Z,62.71
2022-10-12T15:00:42.535Z,62.78
2022-10-12T15:03:09.319Z,62.16
2022-10-12T15:05:36.064Z,63.10
2022-10-12T15:08:09.299Z,64.31
2022-10-12T15:10:37.819Z,64.67
2022-10-12T15:13:04.604Z,64.04
2022-10-12T15:15:40.195Z,66.30
2022-10-12T15:18:07.797Z,65.09
2022-10-12T15:20:35.007Z,65.57
2022-10-12T15:23:03.090Z,65.64
2022-10-12T15:25:35.931Z,65.45
2022-10-12T15:28:03.359Z,66.95
2022-10-12T15:30:30.217Z,66.74
2022-10-12T15:32:56.958Z,67.18
2022-10-12T15:35:26.122Z,67.45
2022-10-12T15:37:53.230Z,67.51
2022-10-12T15:40:20.971Z,68.36
2022-10-12T15:42:47.805Z,68.82
2022-10-12T15:45:22.537Z,68.79
2022-10-12T15:47:50.541Z,68.67
2022-10-12T15:50:19.258Z,69.65
2022-10-12T15:52:46.397Z,70.81
2022-10-12T15:55:22.085Z,70.21
2022-10-12T15:57:49.054Z,70.14
2022-10-12T16:00:17.066Z,70.34
2022-10-12T16:02:43.561Z,70.73
2022-10-12T16:05:20.280Z,70.60
2022-10-12T16:07:47.126Z,70.29
2022-10-12T16:10:15.332Z,70.79
2022-10-12T16:12:43.499Z,71.61
2022-10-12T16:15:12.693Z,71.70
2022-10-12T16:17:39.495Z,71.95
2022-10-12T16:20:06.789Z,72.36
2022-10-12T16:22:33.312Z,72.79
2022-10-12T16:24:59.777Z,72.87
2022-10-12T16:27:26.312Z,73.19
2022-10-12T16:29:52.757Z,73.96
2022-10-12T16:32:19.265Z,73.47
2022-10-12T16:34:46.353Z,73.71
2022-10-12T16:37:12.974Z,73.95
2022-10-12T16:39:39.854Z,73.13
2022-10-12T16:42:06.352Z,74.51
2022-10-12T16:44:32.885Z,74.27
2022-10-12T16:47:01.810Z,74.84
2022-10-12T16:49:28.688Z,75.13
2022-10-12T16:51:55.274Z,74.80
2022-10-12T16:54:23.002Z,75.13
2022-10-12T16:56:49.515Z,75.32
2022-10-12T16:59:16.080Z,75.97
2022-10-12T17:01:42.857Z,76.20
2022-10-12T17:04:12.656Z,75.97
2022-10-12T17:06:39.461Z,75.94
2022-10-12T17:09:05.932Z,76.35
2022-10-12T17:11:36.321Z,76.97
2022-10-12T17:14:04.179Z,76.16
2022-10-12T17:16:48.963Z,76.31
2022-10-12T17:19:20.890Z,76.70
2022-10-12T17:21:48.154Z,77.07
2022-10-12T17:24:18.822Z,77.46
2022-10-12T17:26:46.514Z,78.01
2022-10-12T17:29:15.532Z,78.52
2022-10-12T17:31:42.270Z,78.30
2022-10-12T17:34:17.076Z,78.93
2022-10-12T17:36:43.658Z,77.70
2022-10-12T17:39:10.142Z,77.73
2022-10-12T17:41:37.408Z,77.75
2022-10-12T17:44:03.953Z,78.41
2022-10-12T17:46:30.429Z,78.45
2022-10-12T17:48:57.035Z,77.83
2022-10-12T17:51:23.593Z,77.44
2022-10-12T17:53:50.098Z,77.68
2022-10-12T17:56:17.116Z,77.67
2022-10-12T17:58:44.005Z,78.45
2022-10-12T18:01:13.300Z,77.32
2022-10-12T18:03:41.977Z,77.58
2022-10-12T18:06:14.336Z,77.47
2022-10-12T18:08:40.872Z,77.93
2022-10-12T18:11:08.052Z,77.99
2022-10-12T18:13:35.691Z,78.33
2022-10-12T18:16:02.374Z,78.60
2022-10-12T18:18:29.378Z,78.88
2022-10-12T18:20:55.990Z,78.65
2022-10-12T18:23:22.585Z,78.81
2022-10-12T18:25:50.811Z,78.39
2022-10-12T18:28:20.203Z,78.71
2022-10-12T18:45:57.141Z,75.93
2022-10-12T18:48:23.873Z,76.79
2022-10-12T18:50:51.050Z,77.04
2022-10-12T18:53:17.471Z,76.64
2022-10-12T18:55:44.006Z,75.80
2022-10-12T18:58:10.477Z,76.25
2022-10-12T19:00:37.232Z,76.11
2022-10-12T19:03:03.821Z,75.03
2022-10-12T19:05:31.052Z,75.16
2022-10-12T19:07:58.382Z,75.33
2022-10-12T19:10:24.835Z,75.88
2022-10-12T19:12:51.295Z,76.81
2022-10-12T19:15:18.154Z,76.94
2022-10-12T19:17:44.587Z,77.27
2022-10-12T19:20:11.265Z,77.60
2022-10-12T19:22:38.170Z,77.79
2022-10-12T19:25:04.952Z,77.82
2022-10-12T19:27:32.417Z,79.37
2022-10-12T19:29:58.968Z,79.92
2022-10-12T19:32:25.446Z,80.52
2022-10-12T19:34:52.217Z,80.60
2022-10-12T19:37:19.017Z,80.60
2022-10-12T19:39:47.030Z,81.05
2022-10-12T19:42:13.465Z,81.79
2022-10-12T19:44:40.159Z,82.04
2022-10-12T19:47:06.920Z,82.25
2022-10-12T19:49:36.947Z,82.68
2022-10-12T19:52:05.017Z,82.95
2022-10-12T19:54:36.097Z,83.64
2022-10-12T19:57:02.959Z,84.28
2022-10-12T19:59:29.633Z,85.42
2022-10-12T20:01:56.069Z,85.39
2022-10-12T20:04:22.520Z,85.06
2022-10-12T20:06:49.461Z,85.03
2022-10-12T20:09:15.985Z,85.68
2022-10-12T20:11:42.530Z,86.51
2022-10-12T20:14:10.287Z,86.48
2022-10-12T20:16:36.987Z,86.76
2022-10-12T20:19:04.988Z,87.08
2022-10-12T20:21:32.664Z,88.51
2022-10-12T20:23:59.176Z,88.49
2022-10-12T20:26:26.259Z,88.84
2022-10-12T20:28:54.013Z,88.68
2022-10-12T20:31:23.290Z,88.69
2022-10-12T20:33:53.142Z,90.38
2022-10-12T20:36:22.599Z,90.25
2022-10-12T20:38:49.380Z,90.34
2022-10-12T20:41:18.670Z,89.91
2022-10-12T20:43:45.289Z,90.07
2022-10-12T20:46:14.419Z,90.55
2022-10-12T20:48:41.637Z,90.64
2022-10-12T20:51:10.094Z,91.03
2022-10-12T20:53:37.748Z,90.41
2022-10-12T20:56:07.361Z,91.82
2022-10-12T20:58:34.149Z,91.68
2022-10-12T21:01:11.201Z,91.54
2022-10-12T21:03:38.250Z,91.85
2022-10-12T21:06:10.737Z,92.15
2022-10-12T21:08:37.229Z,92.11
2022-10-12T21:11:04.416Z,92.13
2022-10-12T21:13:32.733Z,92.89
2022-10-12T21:15:59.183Z,93.15
2022-10-12T21:18:26.184Z,93.88
2022-10-12T21:20:54.544Z,93.50
2022-10-12T21:23:21.287Z,93.97
2022-10-12T21:25:47.739Z,93.84
2022-10-12T21:28:14.248Z,94.27
2022-10-12T21:30:40.873Z,93.99
2022-10-12T21:33:07.421Z,94.31
2022-10-12T21:35:34.355Z,94.66
2022-10-12T21:38:00.777Z,95.19
2022-10-12T21:40:27.264Z,94.73
2022-10-12T21:42:53.717Z,95.14
2022-10-12T21:45:20.379Z,94.93
2022-10-12T21:47:48.021Z,94.35
2022-10-12T21:50:14.593Z,95.03
2022-10-12T21:52:41.188Z,94.55
2022-10-12T21:55:08.617Z,95.08
2022-10-12T21:57:37.242Z,94.77
2022-10-12T22:00:05.441Z,94.81
2022-10-12T22:02:32.658Z,95.41
2022-10-12T22:04:59.146Z,95.55
2022-10-12T22:07:25.636Z,96.45
2022-10-12T22:09:52.384Z,96.18
2022-10-12T22:12:19.171Z,96.89
2022-10-12T22:14:46.169Z,96.64
2022-10-12T22:17:12.916Z,97.17
2022-10-12T22:19:39.548Z,97.50
2022-10-12T22:22:06.096Z,97.85
2022-10-12T22:24:32.804Z,98.17
2022-10-12T22:26:59.441Z,98.15
2022-10-12T22:29:26.173Z,98.72
2022-10-12T22:31:52.753Z,98.44
2022-10-12T22:34:20.411Z,98.81
2022-10-12T22:36:46.886Z,98.75
2022-10-12T22:39:13.447Z,99.01
2022-10-12T22:41:39.944Z,99.43
2022-10-12T22:44:06.493Z,99.61
2022-10-12T22:46:33.054Z,99.97
2022-10-12T22:48:59.622Z,100.00
2022-10-12T22:51:32.505Z,100.00
2022-10-12T22:53:59.531Z,100.00
2022-10-12T22:56:26.464Z,100.00
2022-10-12T22:58:58.533Z,100.00
2022-10-12T23:01:25.554Z,100.00
2022-10-12T23:03:52.073Z,100.00
2022-10-12T23:06:18.984Z,100.00
2022-10-12T23:08:46.155Z,100.00
2022-10-12T23:11:15.945Z,100.00
2022-10-12T23:13:42.750Z,100.00
2022-10-12T23:16:15.399Z,100.00
2022-10-12T23:18:42.265Z,100.00
2022-10-12T23:21:14.495Z,100.00
2022-10-12T23:23:41.707Z,100.00
2022-10-12T23:26:19.406Z,100.00
2022-10-12T23:28:46.455Z,100.00
2022-10-12T23:31:15.058Z,100.00
2022-10-12T23:33:41.836Z,100.00
2022-10-12T23:36:11.077Z,100.00
2022-10-12T23:38:38.533Z,100.00
2022-10-12T23:41:05.816Z,100.00
2022-10-12T23:43:33.497Z,100.00
2022-10-12T23:46:00.309Z,100.00
2022-10-12T23:48:27.264Z,100.00
2022-10-12T23:50:53.761Z,100.00
2022-10-12T23:53:21.078Z,100.00
2022-10-12T23:55:48.017Z,100.00
2022-10-12T23:58:14.803Z,100.00
